AWO weather

Arlington Municipal Airport
Arlington, Washington, United States

Public forecast

Using degrees Fahrenheit for public forecast. Weather courtesy of forecast.io.

METAR (pilot weather report)

Retrieved 2019/06/16 06:56 UTC (59 minutes ago):

KAWO 160656Z AUTO 33006KT 10SM CLR 12/09 A3006 RMK AO2 SLP184 T01170094

TAF (pilot weather forecast)

Closest forecast is Snohomish County (Paine Field) Airport, 16.1 nm (29.7 km) SSW. Retrieved 2019/06/16 06:42 UTC (1 hour ago):

TAF KPAE 160538Z 1606/1706 36005KT P6SM FEW250 FM161100 VRB04KT P6SM SCT005 BKN200 FM161700 32005KT P6SM SCT200 FM170000 35006KT P6SM SCT250